Seastreak Highlands — WDE4031 — position and weather

sailwx.info

Track history (hours):
 
Tides and Currents Weather Stations Pressure Air Temp Water Temp Dewpoint Dewpoint Depression Visibility Wind Speed Wind Dir Waves Ship Positions

Seastreak Highlands

Owner: Seastreak llc, atlantic highlands, NJ. More information available from US FCC via Universal Licensing System and Coast Guard Vessel Documentation Center.

Last reported at 2016-May-28 00:03 UTC. Time now 2016-May-29 09:37 UTC.
Position N 40°34' W 074°03'.

Length 44 m.

Type: High speed craft. MMSI: 367347670.

Date/timePositionNaut miles runAvg speedWind from/ knotsBaromVisibWave heightAir tempDewpointWater temp
2016-May-28 00:03N 40°34' W 074°03'919.2
2016-May-27 23:34N 40°43' W 073°58'2 1.0
2016-May-27 21:34N 40°42' W 074°00'3 3.0
2016-May-27 20:34N 40°39' W 074°02'3 2.7
2016-May-27 19:19N 40°36' W 074°03'912.1
2016-May-27 18:33N 40°45' W 073°58'0 0.0
2016-May-27 17:33N 40°45' W 073°58'0 0.0
2016-May-27 16:33N 40°45' W 073°58'0 0.0
2016-May-27 15:33N 40°45' W 073°58'0 0.0
2016-May-27 14:33N 40°45' W 073°58'3 2.9
2016-May-27 13:33N 40°42' W 074°00'8 7.6
2016-May-27 12:32N 40°35' W 074°02'7 7.0
2016-May-27 11:33N 40°41' W 074°02'7 0.6
2016-May-26 23:05N 40°34' W 074°03'1018.6
2016-May-26 22:33N 40°43' W 073°58'1 0.7
2016-May-26 20:34N 40°42' W 073°59'8 1.4
2016-May-26 14:33N 40°34' W 074°02'8 7.9
2016-May-26 13:33N 40°42' W 074°00'9 8.4
2016-May-26 12:31N 40°34' W 074°02'7 7.5
2016-May-26 11:34N 40°41' W 074°02'5 0.6
2016-May-26 02:17N 40°35' W 074°02'1013.0
2016-May-26 01:32N 40°45' W 073°58'8 2.6
2016-May-25 22:30N 40°38' W 074°03'1 1.3
2016-May-25 21:32N 40°36' W 074°02'2 1.8
2016-May-25 20:32N 40°34' W 074°02'7 7.5
2016-May-25 19:34N 40°42' W 074°01'1 0.5
2016-May-25 17:31N 40°42' W 073°60'2 0.8
2016-May-25 15:33N 40°41' W 074°01'2 2.5
2016-May-25 14:33N 40°39' W 074°02'9 7.1
2016-May-25 13:14N 40°29' W 074°02'1522.0
2016-May-25 12:33N 40°44' W 073°58'10 0.8
2016-May-25 00:03N 40°34' W 074°02'1021.0
2016-May-24 23:34N 40°44' W 073°58'3 1.5
2016-May-24 21:33N 40°42' W 074°01'2 1.5
2016-May-24 20:34N 40°40' W 074°02'6 4.7
2016-May-24 19:17N 40°34' W 074°03'1114.7
2016-May-24 18:33N 40°45' W 073°58'0 0.0
2016-May-24 17:33N 40°45' W 073°58'0 0.0
2016-May-24 16:33N 40°45' W 073°58'0 0.0
2016-May-24 15:33N 40°45' W 073°58'0 0.0
2016-May-24 14:34N 40°45' W 073°58'3 3.0
2016-May-24 13:33N 40°42' W 074°00'8 7.8
2016-May-24 12:29N 40°34' W 074°02'7 7.8
2016-May-24 11:34N 40°41' W 074°01'8 0.7
2016-May-24 00:08N 40°33' W 074°02'1219.8
2016-May-23 23:33N 40°44' W 073°58'3 1.6
2016-May-23 21:34N 40°41' W 074°01'1 1.0
2016-May-23 20:34N 40°41' W 074°01'8 6.2
2016-May-23 19:18N 40°33' W 074°02'1216.4
2016-May-23 18:33N 40°45' W 073°58'0 0.0
2016-May-23 17:33N 40°45' W 073°58'0 0.0
2016-May-23 16:33N 40°45' W 073°58'0 0.0
2016-May-23 15:33N 40°45' W 073°58'0 0.0
2016-May-23 14:33N 40°45' W 073°58'3 2.9
2016-May-23 13:33N 40°42' W 074°00'8 7.3
2016-May-23 12:25N 40°34' W 074°03'7 7.6
2016-May-23 11:34N 40°41' W 074°01'7 0.7
2016-May-23 01:07N 40°33' W 074°03'1119.2
2016-May-23 00:34N 40°43' W 073°58'10 4.4
2016-May-22 22:16N 40°34' W 074°02'1014.0
2016-May-22 21:34N 40°43' W 073°58'3 1.4
2016-May-22 19:34N 40°41' W 074°01'4 3.9
2016-May-22 18:33N 40°45' W 073°58'0 0.0
2016-May-22 17:33N 40°45' W 073°58'7 7.4
2016-May-22 16:34N 40°38' W 074°03'5 3.6
2016-May-22 15:15N 40°33' W 074°02'1115.8
2016-May-22 14:34N 40°44' W 073°58'11 0.8
2016-May-22 01:04N 40°34' W 074°02'1020.6
2016-May-22 00:34N 40°44' W 073°58'10 4.3
2016-May-21 22:13N 40°34' W 074°03'1016.0
2016-May-21 21:34N 40°44' W 073°58'3 1.4
2016-May-21 19:34N 40°42' W 074°00'3 3.4
2016-May-21 18:33N 40°45' W 073°58'0 0.0
2016-May-21 17:33N 40°45' W 073°58'9 9.0
2016-May-21 16:34N 40°36' W 074°03'3 2.2
2016-May-21 15:15N 40°33' W 074°02'1015.2
2016-May-21 14:34N 40°43' W 073°58'10 0.7
2016-May-21 00:05N 40°33' W 074°02'1121.1
2016-May-20 23:33N 40°44' W 073°58'4 1.8
2016-May-20 21:34N 40°41' W 074°01'1 0.8
2016-May-20 20:34N 40°41' W 074°01'6 5.0
2016-May-20 19:17N 40°34' W 074°03'1114.6
2016-May-20 18:34N 40°45' W 073°58'0 0.0
2016-May-20 17:34N 40°45' W 073°58'0 0.0
2016-May-20 16:33N 40°45' W 073°58'0 0.0
2016-May-20 15:33N 40°45' W 073°58'0 0.0
2016-May-20 14:33N 40°45' W 073°58'3 2.9
2016-May-20 13:34N 40°42' W 074°00'9 8.1
2016-May-20 12:28N 40°33' W 074°02'8 8.7
2016-May-20 11:34N 40°41' W 074°01'7 0.6
2016-May-20 00:03N 40°34' W 074°02'1020.8
2016-May-19 23:33N 40°44' W 073°58'3 1.5
2016-May-19 21:33N 40°42' W 074°01'1 1.2
2016-May-19 20:34N 40°41' W 074°01'10 8.3
2016-May-19 19:24N 40°31' W 074°02'1416.1
2016-May-19 18:33N 40°45' W 073°58'0 0.0
2016-May-19 17:33N 40°45' W 073°58'0 0.0
2016-May-19 16:33N 40°45' W 073°58'0 0.0
2016-May-19 15:33N 40°45' W 073°58'0 0.0
2016-May-19 14:33N 40°45' W 073°58'3 2.9
2016-May-19 13:34N 40°42' W 074°00'9 8.0
2016-May-19 12:26N 40°33' W 074°02'8 8.7
2016-May-19 11:34N 40°41' W 074°01'8 0.7
2016-May-19 00:06N 40°33' W 074°02'1120.6
2016-May-18 23:34N 40°44' W 073°58'3 1.5
2016-May-18 21:34N 40°42' W 074°00'0 0.3
2016-May-18 20:34N 40°41' W 074°01'8 7.3
2016-May-18 19:23N 40°33' W 074°02'1214.3
2016-May-18 18:33N 40°45' W 073°58'0 0.0
2016-May-18 17:33N 40°45' W 073°58'0 0.0
2016-May-18 16:33N 40°45' W 073°58'0 0.0
2016-May-18 15:33N 40°45' W 073°58'0 0.0
2016-May-18 14:33N 40°45' W 073°58'3 3.0
2016-May-18 13:33N 40°42' W 074°00'10 9.8
2016-May-18 12:33N 40°32' W 074°02'9 8.7
2016-May-18 11:34N 40°41' W 074°01'9 0.8
2016-May-18 00:08N 40°32' W 074°02'  
Track history (hours):
 
Tides and Currents Weather Stations Pressure Air Temp Water Temp Dewpoint Dewpoint Depression Visibility Wind Speed Wind Dir Waves Ship Positions

Seastreak Highlands

Owner: Seastreak llc, atlantic highlands, NJ. More information available from US FCC via Universal Licensing System and Coast Guard Vessel Documentation Center.

Last reported at 2016-May-28 00:03 UTC. Time now 2016-May-29 09:37 UTC.
Position N 40°34' W 074°03'.

Length 44 m.

Type: High speed craft. MMSI: 367347670.

Date/timePositionNaut miles runAvg speedWind from/ knotsBaromVisibWave heightAir tempDewpointWater temp
2016-May-28 00:03N 40°34' W 074°03'919.2
2016-May-27 23:34N 40°43' W 073°58'2 1.0
2016-May-27 21:34N 40°42' W 074°00'3 3.0
2016-May-27 20:34N 40°39' W 074°02'3 2.7
2016-May-27 19:19N 40°36' W 074°03'912.1
2016-May-27 18:33N 40°45' W 073°58'0 0.0
2016-May-27 17:33N 40°45' W 073°58'0 0.0
2016-May-27 16:33N 40°45' W 073°58'0 0.0
2016-May-27 15:33N 40°45' W 073°58'0 0.0
2016-May-27 14:33N 40°45' W 073°58'3 2.9
2016-May-27 13:33N 40°42' W 074°00'8 7.6
2016-May-27 12:32N 40°35' W 074°02'7 7.0
2016-May-27 11:33N 40°41' W 074°02'7 0.6
2016-May-26 23:05N 40°34' W 074°03'1018.6
2016-May-26 22:33N 40°43' W 073°58'1 0.7
2016-May-26 20:34N 40°42' W 073°59'8 1.4
2016-May-26 14:33N 40°34' W 074°02'8 7.9
2016-May-26 13:33N 40°42' W 074°00'9 8.4
2016-May-26 12:31N 40°34' W 074°02'7 7.5
2016-May-26 11:34N 40°41' W 074°02'5 0.6
2016-May-26 02:17N 40°35' W 074°02'1013.0
2016-May-26 01:32N 40°45' W 073°58'8 2.6
2016-May-25 22:30N 40°38' W 074°03'1 1.3
2016-May-25 21:32N 40°36' W 074°02'2 1.8
2016-May-25 20:32N 40°34' W 074°02'7 7.5
2016-May-25 19:34N 40°42' W 074°01'1 0.5
2016-May-25 17:31N 40°42' W 073°60'2 0.8
2016-May-25 15:33N 40°41' W 074°01'2 2.5
2016-May-25 14:33N 40°39' W 074°02'9 7.1
2016-May-25 13:14N 40°29' W 074°02'1522.0
2016-May-25 12:33N 40°44' W 073°58'10 0.8
2016-May-25 00:03N 40°34' W 074°02'1021.0
2016-May-24 23:34N 40°44' W 073°58'3 1.5
2016-May-24 21:33N 40°42' W 074°01'2 1.5
2016-May-24 20:34N 40°40' W 074°02'6 4.7
2016-May-24 19:17N 40°34' W 074°03'1114.7
2016-May-24 18:33N 40°45' W 073°58'0 0.0
2016-May-24 17:33N 40°45' W 073°58'0 0.0
2016-May-24 16:33N 40°45' W 073°58'0 0.0
2016-May-24 15:33N 40°45' W 073°58'0 0.0
2016-May-24 14:34N 40°45' W 073°58'3 3.0
2016-May-24 13:33N 40°42' W 074°00'8 7.8
2016-May-24 12:29N 40°34' W 074°02'7 7.8
2016-May-24 11:34N 40°41' W 074°01'8 0.7
2016-May-24 00:08N 40°33' W 074°02'1219.8
2016-May-23 23:33N 40°44' W 073°58'3 1.6
2016-May-23 21:34N 40°41' W 074°01'1 1.0
2016-May-23 20:34N 40°41' W 074°01'8 6.2
2016-May-23 19:18N 40°33' W 074°02'1216.4
2016-May-23 18:33N 40°45' W 073°58'0 0.0
2016-May-23 17:33N 40°45' W 073°58'0 0.0
2016-May-23 16:33N 40°45' W 073°58'0 0.0
2016-May-23 15:33N 40°45' W 073°58'0 0.0
2016-May-23 14:33N 40°45' W 073°58'3 2.9
2016-May-23 13:33N 40°42' W 074°00'8 7.3
2016-May-23 12:25N 40°34' W 074°03'7 7.6
2016-May-23 11:34N 40°41' W 074°01'7 0.7
2016-May-23 01:07N 40°33' W 074°03'1119.2
2016-May-23 00:34N 40°43' W 073°58'10 4.4
2016-May-22 22:16N 40°34' W 074°02'1014.0
2016-May-22 21:34N 40°43' W 073°58'3 1.4
2016-May-22 19:34N 40°41' W 074°01'4 3.9
2016-May-22 18:33N 40°45' W 073°58'0 0.0
2016-May-22 17:33N 40°45' W 073°58'7 7.4
2016-May-22 16:34N 40°38' W 074°03'5 3.6
2016-May-22 15:15N 40°33' W 074°02'1115.8
2016-May-22 14:34N 40°44' W 073°58'11 0.8
2016-May-22 01:04N 40°34' W 074°02'1020.6
2016-May-22 00:34N 40°44' W 073°58'10 4.3
2016-May-21 22:13N 40°34' W 074°03'1016.0
2016-May-21 21:34N 40°44' W 073°58'3 1.4
2016-May-21 19:34N 40°42' W 074°00'3 3.4
2016-May-21 18:33N 40°45' W 073°58'0 0.0
2016-May-21 17:33N 40°45' W 073°58'9 9.0
2016-May-21 16:34N 40°36' W 074°03'3 2.2
2016-May-21 15:15N 40°33' W 074°02'1015.2
2016-May-21 14:34N 40°43' W 073°58'10 0.7
2016-May-21 00:05N 40°33' W 074°02'1121.1
2016-May-20 23:33N 40°44' W 073°58'4 1.8
2016-May-20 21:34N 40°41' W 074°01'1 0.8
2016-May-20 20:34N 40°41' W 074°01'6 5.0
2016-May-20 19:17N 40°34' W 074°03'1114.6
2016-May-20 18:34N 40°45' W 073°58'0 0.0
2016-May-20 17:34N 40°45' W 073°58'0 0.0
2016-May-20 16:33N 40°45' W 073°58'0 0.0
2016-May-20 15:33N 40°45' W 073°58'0 0.0
2016-May-20 14:33N 40°45' W 073°58'3 2.9
2016-May-20 13:34N 40°42' W 074°00'9 8.1
2016-May-20 12:28N 40°33' W 074°02'8 8.7
2016-May-20 11:34N 40°41' W 074°01'7 0.6
2016-May-20 00:03N 40°34' W 074°02'1020.8
2016-May-19 23:33N 40°44' W 073°58'3 1.5
2016-May-19 21:33N 40°42' W 074°01'1 1.2
2016-May-19 20:34N 40°41' W 074°01'10 8.3
2016-May-19 19:24N 40°31' W 074°02'1416.1
2016-May-19 18:33N 40°45' W 073°58'0 0.0
2016-May-19 17:33N 40°45' W 073°58'0 0.0
2016-May-19 16:33N 40°45' W 073°58'0 0.0
2016-May-19 15:33N 40°45' W 073°58'0 0.0
2016-May-19 14:33N 40°45' W 073°58'3 2.9
2016-May-19 13:34N 40°42' W 074°00'9 8.0
2016-May-19 12:26N 40°33' W 074°02'8 8.7
2016-May-19 11:34N 40°41' W 074°01'8 0.7
2016-May-19 00:06N 40°33' W 074°02'1120.6
2016-May-18 23:34N 40°44' W 073°58'3 1.5
2016-May-18 21:34N 40°42' W 074°00'0 0.3
2016-May-18 20:34N 40°41' W 074°01'8 7.3
2016-May-18 19:23N 40°33' W 074°02'1214.3
2016-May-18 18:33N 40°45' W 073°58'0 0.0
2016-May-18 17:33N 40°45' W 073°58'0 0.0
2016-May-18 16:33N 40°45' W 073°58'0 0.0
2016-May-18 15:33N 40°45' W 073°58'0 0.0
2016-May-18 14:33N 40°45' W 073°58'3 3.0
2016-May-18 13:33N 40°42' W 074°00'10 9.8
2016-May-18 12:33N 40°32' W 074°02'9 8.7
2016-May-18 11:34N 40°41' W 074°01'9 0.8
2016-May-18 00:08N 40°32' W 074°02'  

Dump ship's entire track history